createdAt,value
2019-05-22T00:02:17.032Z,101297.41
2019-05-22T00:04:50.778Z,101299.42
2019-05-22T00:07:19.680Z,101292.47
2019-05-22T00:09:48.575Z,101292.80
2019-05-22T00:12:18.329Z,101299.96
2019-05-22T00:14:47.747Z,101300.63
2019-05-22T00:17:16.636Z,101293.33
2019-05-22T00:19:45.813Z,101299.70
2019-05-22T00:22:23.087Z,101296.83
2019-05-22T00:24:53.231Z,101296.88
2019-05-22T00:27:22.579Z,101296.83
2019-05-22T00:29:52.166Z,101296.62
2019-05-22T00:32:21.335Z,101304.13
2019-05-22T00:34:50.253Z,101295.61
2019-05-22T00:37:19.257Z,101300.70
2019-05-22T00:39:48.732Z,101304.36
2019-05-22T00:42:18.512Z,101295.97
2019-05-22T00:44:47.932Z,101300.92
2019-05-22T00:47:17.152Z,101304.36
2019-05-22T00:49:46.826Z,101307.13
2019-05-22T00:52:33.682Z,101307.93
2019-05-22T00:55:15.660Z,101308.84
2019-05-22T00:58:03.677Z,101308.55
2019-05-22T01:00:37.891Z,101308.11
2019-05-22T01:03:07.663Z,101306.11
2019-05-22T01:05:37.617Z,101308.10
2019-05-22T01:08:07.195Z,101315.52
2019-05-22T01:10:36.174Z,101314.62
2019-05-22T01:13:05.094Z,101316.11
2019-05-22T01:15:33.967Z,101319.19
2019-05-22T01:18:02.976Z,101323.36
2019-05-22T01:20:31.911Z,101317.84
2019-05-22T01:23:00.850Z,101322.28
2019-05-22T01:25:29.736Z,101321.80
2019-05-22T01:27:58.773Z,101320.72
2019-05-22T01:30:34.614Z,101319.80
2019-05-22T01:33:05.692Z,101332.17
2019-05-22T01:35:36.600Z,101327.08
2019-05-22T01:38:06.970Z,101326.94
2019-05-22T01:40:42.800Z,101329.93
2019-05-22T01:43:12.816Z,101322.67
2019-05-22T01:45:52.533Z,101322.55
2019-05-22T01:48:22.932Z,101328.34
2019-05-22T01:50:54.392Z,101337.00
2019-05-22T01:53:25.583Z,101332.69
2019-05-22T01:55:57.852Z,101337.59
2019-05-22T01:58:27.495Z,101336.59
2019-05-22T02:00:56.485Z,101340.84
2019-05-22T02:03:25.946Z,101344.06
2019-05-22T02:05:54.925Z,101341.44
2019-05-22T02:08:24.546Z,101352.05
2019-05-22T02:10:53.451Z,101355.03
2019-05-22T02:13:27.780Z,101352.16
2019-05-22T02:15:56.683Z,101356.73
2019-05-22T02:18:25.579Z,101354.53
2019-05-22T02:20:54.496Z,101357.25
2019-05-22T02:23:23.414Z,101357.75
2019-05-22T02:25:52.279Z,101363.31
2019-05-22T02:28:21.251Z,101362.19
2019-05-22T02:30:50.134Z,101360.67
2019-05-22T02:33:19.511Z,101359.35
2019-05-22T02:35:48.399Z,101360.31
2019-05-22T02:38:17.339Z,101361.80
2019-05-22T02:40:46.242Z,101357.95
2019-05-22T02:43:15.136Z,101362.66
2019-05-22T02:45:44.439Z,101358.95
2019-05-22T02:48:13.315Z,101365.02
2019-05-22T02:50:42.244Z,101365.25
2019-05-22T02:53:11.297Z,101361.80
2019-05-22T02:55:40.325Z,101367.66
2019-05-22T02:58:09.559Z,101368.16
2019-05-22T03:00:52.386Z,101359.25
2019-05-22T03:03:21.310Z,101365.52
2019-05-22T03:05:50.217Z,101359.98
2019-05-22T03:08:19.137Z,101360.33
2019-05-22T03:10:48.066Z,101368.33
2019-05-22T03:13:16.965Z,101364.67
2019-05-22T03:15:45.883Z,101368.39
2019-05-22T03:18:14.783Z,101372.05
2019-05-22T03:20:43.707Z,101371.47
2019-05-22T03:23:33.088Z,101365.61
2019-05-22T03:26:02.293Z,101371.95
2019-05-22T03:28:31.162Z,101376.48
2019-05-22T03:31:00.112Z,101374.10
2019-05-22T03:33:29.118Z,101373.94
2019-05-22T03:36:06.502Z,101370.79
2019-05-22T03:38:35.407Z,101379.20
2019-05-22T03:41:04.359Z,101378.21
2019-05-22T03:43:33.256Z,101378.94
2019-05-22T03:46:04.192Z,101382.16
2019-05-22T03:48:34.586Z,101383.91
2019-05-22T03:51:09.974Z,101381.12
2019-05-22T03:53:38.890Z,101382.13
2019-05-22T03:56:07.971Z,101389.80
2019-05-22T03:58:36.889Z,101383.38
2019-05-22T04:01:05.861Z,101384.51
2019-05-22T04:03:35.801Z,101392.22
2019-05-22T04:06:05.034Z,101395.02
2019-05-22T04:08:33.944Z,101393.29
2019-05-22T04:11:03.243Z,101395.81
2019-05-22T04:13:32.709Z,101396.07
2019-05-22T04:16:01.757Z,101394.35
2019-05-22T04:18:30.668Z,101395.87
2019-05-22T04:20:59.572Z,101398.92
2019-05-22T04:23:28.499Z,101396.53
2019-05-22T04:25:57.445Z,101402.50
2019-05-22T04:28:26.692Z,101409.23
2019-05-22T04:30:59.712Z,101410.09
2019-05-22T04:33:24.514Z,101414.61
2019-05-22T04:35:53.454Z,101416.06
2019-05-22T04:38:22.451Z,101416.09
2019-05-22T04:40:55.004Z,101421.20
2019-05-22T04:43:27.242Z,101418.28
2019-05-22T04:45:56.177Z,101425.88
2019-05-22T04:48:25.850Z,101420.19
2019-05-22T04:50:54.753Z,101422.32
2019-05-22T04:53:23.629Z,101429.91
2019-05-22T04:55:53.035Z,101421.53
2019-05-22T04:58:28.678Z,101427.67
2019-05-22T05:00:57.583Z,101425.94
2019-05-22T05:03:26.526Z,101428.92
2019-05-22T05:05:55.472Z,101419.77
2019-05-22T05:08:24.369Z,101424.72
2019-05-22T05:10:53.322Z,101431.52
2019-05-22T05:13:22.303Z,101433.91
2019-05-22T05:15:51.246Z,101438.14
2019-05-22T05:18:20.141Z,101436.05
2019-05-22T05:20:49.047Z,101437.58
2019-05-22T05:23:17.964Z,101437.37
2019-05-22T05:25:46.846Z,101437.58
2019-05-22T05:28:15.785Z,101435.52
2019-05-22T05:30:44.727Z,101444.17
2019-05-22T05:33:13.622Z,101446.13
2019-05-22T05:35:42.551Z,101447.81
2019-05-22T05:38:11.495Z,101446.73
2019-05-22T05:40:43.520Z,101449.52
2019-05-22T05:43:16.634Z,101453.95
2019-05-22T05:45:45.835Z,101455.05
2019-05-22T05:48:17.048Z,101451.13
2019-05-22T05:51:26.408Z,101455.80
2019-05-22T05:54:19.760Z,101451.16
2019-05-22T05:56:49.211Z,101450.42
2019-05-22T05:59:18.837Z,101453.00
2019-05-22T06:01:49.596Z,101442.55
2019-05-22T06:04:34.071Z,101443.28
2019-05-22T06:07:21.479Z,101446.79
2019-05-22T06:10:29.240Z,101445.16
2019-05-22T06:12:58.141Z,101446.80
2019-05-22T06:15:46.655Z,101451.80
2019-05-22T06:18:31.344Z,101458.31
2019-05-22T06:21:03.800Z,101450.02
2019-05-22T06:24:06.808Z,101454.98
2019-05-22T06:27:05.529Z,101456.52
2019-05-22T06:30:07.945Z,101454.86
2019-05-22T06:33:27.146Z,101458.88
2019-05-22T06:35:56.054Z,101448.48
2019-05-22T06:38:55.012Z,101450.44
2019-05-22T06:41:29.862Z,101457.53
2019-05-22T06:44:25.589Z,101458.86
2019-05-22T06:46:54.505Z,101458.38
2019-05-22T06:49:45.578Z,101459.51
2019-05-22T06:52:14.725Z,101457.91
2019-05-22T06:54:43.884Z,101458.09
2019-05-22T06:57:30.397Z,101462.55
2019-05-22T07:00:13.460Z,101464.23
2019-05-22T07:02:30.600Z,101469.20
2019-05-22T07:04:59.557Z,101467.59
2019-05-22T07:07:28.502Z,101476.66
2019-05-22T07:09:57.748Z,101468.02
2019-05-22T07:12:26.641Z,101475.55
2019-05-22T07:15:26.583Z,101472.86
2019-05-22T07:17:55.782Z,101471.12
2019-05-22T07:20:28.007Z,101475.41
2019-05-22T07:22:57.120Z,101468.53
2019-05-22T07:25:26.035Z,101470.56
2019-05-22T07:27:54.887Z,101478.95
2019-05-22T07:30:24.342Z,101469.33
2019-05-22T07:32:53.211Z,101472.03
2019-05-22T07:35:22.142Z,101472.77
2019-05-22T07:37:51.101Z,101474.24
2019-05-22T07:40:19.963Z,101467.14
2019-05-22T07:42:49.294Z,101469.10
2019-05-22T07:45:18.184Z,101465.66
2019-05-22T07:47:47.612Z,101469.59
2019-05-22T07:50:16.507Z,101471.25
2019-05-22T07:52:45.392Z,101479.76
2019-05-22T07:55:14.342Z,101487.06
2019-05-22T07:57:43.215Z,101479.44
2019-05-22T08:00:12.144Z,101476.73
2019-05-22T08:02:43.329Z,101470.28
2019-05-22T08:05:12.219Z,101468.09
2019-05-22T08:07:41.145Z,101471.31
2019-05-22T08:10:10.801Z,101472.02
2019-05-22T08:12:39.712Z,101464.77
2019-05-22T08:15:08.720Z,101468.34
2019-05-22T08:17:37.622Z,101472.09
2019-05-22T08:20:06.624Z,101475.48
2019-05-22T08:22:35.850Z,101474.56
2019-05-22T08:25:04.859Z,101466.40
2019-05-22T08:27:33.812Z,101459.57
2019-05-22T08:30:02.730Z,101471.17
2019-05-22T08:32:31.638Z,101476.16
2019-05-22T08:35:00.527Z,101479.02
2019-05-22T08:37:29.448Z,101472.11
2019-05-22T08:39:58.353Z,101475.62
2019-05-22T08:42:27.249Z,101481.48
2019-05-22T08:44:56.140Z,101481.52
2019-05-22T08:47:25.053Z,101475.78
2019-05-22T08:49:53.960Z,101476.00
2019-05-22T08:52:24.218Z,101472.09
2019-05-22T08:54:51.778Z,101484.13
2019-05-22T08:57:20.938Z,101479.09
2019-05-22T08:59:49.826Z,101473.45
2019-05-22T09:02:18.731Z,101480.56
2019-05-22T09:04:47.632Z,101472.39
2019-05-22T09:07:16.534Z,101470.83
2019-05-22T09:09:45.444Z,101476.89
2019-05-22T09:12:14.346Z,101486.12
2019-05-22T09:14:43.300Z,101478.59
2019-05-22T09:17:12.205Z,101483.94
2019-05-22T09:19:41.564Z,101489.56
2019-05-22T09:22:10.537Z,101491.45
2019-05-22T09:24:39.460Z,101479.29
2019-05-22T09:27:08.371Z,101480.44
2019-05-22T09:29:37.369Z,101478.09
2019-05-22T09:32:08.256Z,101481.55
2019-05-22T09:34:36.989Z,101485.03
2019-05-22T09:37:05.912Z,101475.14
2019-05-22T09:39:34.761Z,101469.85
2019-05-22T09:42:04.997Z,101476.28
2019-05-22T09:44:33.799Z,101481.40
2019-05-22T09:47:02.865Z,101479.13
2019-05-22T09:49:31.742Z,101482.82
2019-05-22T09:52:00.656Z,101479.04
2019-05-22T09:54:29.550Z,101485.64
2019-05-22T09:56:58.424Z,101488.16
2019-05-22T09:59:27.334Z,101484.33
2019-05-22T10:01:56.231Z,101482.30
2019-05-22T10:04:25.245Z,101481.86
2019-05-22T10:06:54.106Z,101484.45
2019-05-22T10:09:23.000Z,101474.27
2019-05-22T10:11:51.893Z,101464.27
2019-05-22T10:14:20.816Z,101467.80
2019-05-22T10:16:49.720Z,101459.31
2019-05-22T10:19:18.668Z,101465.52
2019-05-22T10:21:48.271Z,101458.82
2019-05-22T10:24:17.190Z,101463.16
2019-05-22T10:26:46.167Z,101463.33
2019-05-22T10:29:15.052Z,101458.11
2019-05-22T10:31:44.001Z,101458.31
2019-05-22T10:34:12.893Z,101459.53
2019-05-22T10:36:43.228Z,101453.48
2019-05-22T10:39:10.729Z,101463.17
2019-05-22T10:41:39.633Z,101468.25
2019-05-22T10:44:08.722Z,101467.91
2019-05-22T10:46:37.578Z,101461.45
2019-05-22T10:49:06.590Z,101457.17
2019-05-22T10:51:35.450Z,101468.55
2019-05-22T10:54:04.479Z,101468.28
2019-05-22T10:56:33.370Z,101464.72
2019-05-22T10:59:02.276Z,101467.28
2019-05-22T11:01:31.319Z,101462.85
2019-05-22T11:04:00.232Z,101464.20
2019-05-22T11:06:29.115Z,101459.38
2019-05-22T11:08:58.020Z,101459.95
2019-05-22T11:11:26.948Z,101459.67
2019-05-22T11:14:01.315Z,101464.69
2019-05-22T11:16:24.710Z,101463.52
2019-05-22T11:18:53.653Z,101471.86
2019-05-22T11:21:22.974Z,101466.59
2019-05-22T11:23:53.228Z,101472.36
2019-05-22T11:26:20.776Z,101474.92
2019-05-22T11:28:49.659Z,101468.74
2019-05-22T11:31:18.906Z,101464.53
2019-05-22T11:33:47.774Z,101462.06
2019-05-22T11:36:17.087Z,101454.48
2019-05-22T11:38:46.083Z,101457.37
2019-05-22T11:41:14.978Z,101443.42
2019-05-22T11:43:43.862Z,101443.98
2019-05-22T11:46:12.812Z,101454.09
2019-05-22T11:48:41.703Z,101442.73
2019-05-22T11:51:11.125Z,101448.31
2019-05-22T11:53:40.016Z,101455.83
2019-05-22T11:56:08.928Z,101453.25
2019-05-22T11:58:37.843Z,101448.28
2019-05-22T12:01:06.884Z,101451.86
2019-05-22T12:03:35.782Z,101452.66
2019-05-22T12:06:04.843Z,101455.27
2019-05-22T12:08:33.727Z,101452.26
2019-05-22T12:11:02.745Z,101462.22
2019-05-22T12:13:31.729Z,101453.63
2019-05-22T12:16:00.796Z,101449.28
2019-05-22T12:18:29.707Z,101454.30
2019-05-22T12:20:58.601Z,101449.52
2019-05-22T12:23:27.514Z,101444.08
2019-05-22T12:25:56.396Z,101441.41
2019-05-22T12:28:25.323Z,101450.54
2019-05-22T12:30:54.241Z,101450.55
2019-05-22T12:33:23.130Z,101440.63
2019-05-22T12:35:52.038Z,101451.20
2019-05-22T12:38:20.913Z,101438.66
2019-05-22T12:40:49.823Z,101441.19
2019-05-22T12:43:18.714Z,101435.34
2019-05-22T12:45:47.610Z,101443.31
2019-05-22T12:48:16.495Z,101429.39
2019-05-22T12:50:45.929Z,101426.70
2019-05-22T12:53:18.429Z,101427.49
2019-05-22T12:55:50.215Z,101428.98
2019-05-22T12:58:19.762Z,101439.39
2019-05-22T13:00:49.143Z,101420.25
2019-05-22T13:03:21.401Z,101424.28
2019-05-22T13:05:58.916Z,101434.03
2019-05-22T13:08:27.687Z,101438.55
2019-05-22T13:10:59.219Z,101428.62
2019-05-22T13:13:31.423Z,101435.34
2019-05-22T13:16:00.934Z,101430.24
2019-05-22T13:18:35.510Z,101432.03
2019-05-22T13:21:04.772Z,101433.26
2019-05-22T13:23:43.148Z,101431.79
2019-05-22T13:26:17.480Z,101423.75
2019-05-22T13:28:52.820Z,101424.78
2019-05-22T13:31:24.995Z,101427.16
2019-05-22T13:33:54.182Z,101429.45
2019-05-22T13:36:30.785Z,101424.88
2019-05-22T13:39:02.226Z,101431.11
2019-05-22T13:41:31.234Z,101425.34
2019-05-22T13:44:00.957Z,101425.80
2019-05-22T13:46:30.204Z,101434.50
2019-05-22T13:48:59.471Z,101426.05
2019-05-22T13:51:28.625Z,101429.89
2019-05-22T13:54:00.890Z,101431.17
2019-05-22T13:56:34.616Z,101427.04
2019-05-22T13:59:01.792Z,101424.77
2019-05-22T14:01:33.528Z,101432.55
2019-05-22T14:04:05.533Z,101423.19
2019-05-22T14:06:34.449Z,101420.70
2019-05-22T14:09:03.492Z,101419.44
2019-05-22T14:11:32.371Z,101420.98
2019-05-22T14:14:01.305Z,101425.92
2019-05-22T14:16:30.176Z,101419.98
2019-05-22T14:18:59.099Z,101422.27
2019-05-22T14:21:27.977Z,101422.57
2019-05-22T14:23:56.840Z,101420.48
2019-05-22T14:26:25.741Z,101422.96
2019-05-22T14:28:54.690Z,101423.02
2019-05-22T14:31:23.511Z,101420.05
2019-05-22T14:33:52.456Z,101424.27
2019-05-22T14:36:21.360Z,101427.03
2019-05-22T14:38:50.307Z,101424.40
2019-05-22T14:41:19.192Z,101421.40
2019-05-22T14:43:48.084Z,101422.18
2019-05-22T14:46:16.971Z,101429.98
2019-05-22T14:48:45.915Z,101416.27
2019-05-22T14:51:15.134Z,101423.08
2019-05-22T14:53:44.081Z,101423.95
2019-05-22T14:56:12.976Z,101424.17
2019-05-22T14:58:42.289Z,101421.67
2019-05-22T15:01:11.310Z,101421.36
2019-05-22T15:03:40.227Z,101421.89
2019-05-22T15:06:09.191Z,101420.40
2019-05-22T15:08:38.140Z,101412.72
2019-05-22T15:11:07.110Z,101413.92
2019-05-22T15:13:36.008Z,101410.78
2019-05-22T15:16:05.017Z,101413.41
2019-05-22T15:18:33.901Z,101412.63
2019-05-22T15:21:06.091Z,101409.47
2019-05-22T15:23:34.974Z,101406.41
2019-05-22T15:26:03.899Z,101408.59
2019-05-22T15:28:32.781Z,101416.52
2019-05-22T15:31:02.433Z,101412.61
2019-05-22T15:33:31.710Z,101407.20
2019-05-22T15:36:00.615Z,101404.59
2019-05-22T15:38:29.513Z,101409.24
2019-05-22T15:40:58.445Z,101405.47
2019-05-22T15:43:27.753Z,101410.47
2019-05-22T15:45:56.654Z,101416.28
2019-05-22T15:48:29.194Z,101409.16
2019-05-22T15:50:59.582Z,101415.38
2019-05-22T15:53:28.486Z,101416.39
2019-05-22T15:55:57.381Z,101413.36
2019-05-22T15:58:26.420Z,101415.84
2019-05-22T16:00:55.766Z,101415.32
2019-05-22T16:03:26.367Z,101414.88
2019-05-22T16:05:55.284Z,101411.44
2019-05-22T16:08:24.162Z,101408.16
2019-05-22T16:10:53.038Z,101413.38
2019-05-22T16:13:23.349Z,101412.44
2019-05-22T16:15:52.468Z,101411.67
2019-05-22T16:18:22.112Z,101410.34
2019-05-22T16:20:50.997Z,101409.16
2019-05-22T16:23:21.688Z,101406.20
2019-05-22T16:25:49.419Z,101411.45
2019-05-22T16:28:18.399Z,101409.09
2019-05-22T16:30:47.288Z,101406.15
2019-05-22T16:33:16.210Z,101402.64
2019-05-22T16:35:45.100Z,101405.69
2019-05-22T16:38:14.315Z,101404.64
2019-05-22T16:40:43.506Z,101407.12
2019-05-22T16:43:12.460Z,101401.03
2019-05-22T16:45:41.362Z,101404.97
2019-05-22T16:48:10.251Z,101403.44
2019-05-22T16:50:39.608Z,101406.28
2019-05-22T16:53:08.859Z,101412.22
2019-05-22T16:55:38.341Z,101411.91
2019-05-22T16:58:07.376Z,101410.20
2019-05-22T17:00:36.237Z,101408.05
2019-05-22T17:03:05.212Z,101402.72
2019-05-22T17:05:34.140Z,101406.80
2019-05-22T17:08:03.150Z,101409.73
2019-05-22T17:10:31.987Z,101409.41
2019-05-22T17:13:00.910Z,101410.09
2019-05-22T17:15:29.812Z,101410.37
2019-05-22T17:17:58.688Z,101415.28
2019-05-22T17:20:28.202Z,101416.92
2019-05-22T17:22:57.172Z,101425.38
2019-05-22T17:25:26.126Z,101427.69
2019-05-22T17:27:55.049Z,101425.22
2019-05-22T17:30:23.997Z,101424.60
2019-05-22T17:32:52.922Z,101429.44
2019-05-22T17:35:22.167Z,101432.59
2019-05-22T17:37:51.103Z,101437.50
2019-05-22T17:40:20.028Z,101433.98
2019-05-22T17:42:48.943Z,101441.45
2019-05-22T17:45:17.825Z,101440.00
2019-05-22T17:47:46.828Z,101443.30
2019-05-22T17:50:26.346Z,101444.22
2019-05-22T17:52:44.684Z,101436.55
2019-05-22T17:55:13.553Z,101442.31
2019-05-22T17:57:42.482Z,101444.13
2019-05-22T18:00:16.713Z,101446.08
2019-05-22T18:02:45.623Z,101444.42
2019-05-22T18:05:14.519Z,101450.64
2019-05-22T18:07:43.412Z,101444.34
2019-05-22T18:10:12.303Z,101450.73
2019-05-22T18:12:41.203Z,101452.00
2019-05-22T18:15:10.500Z,101453.03
2019-05-22T18:17:39.929Z,101453.05
2019-05-22T18:20:08.873Z,101457.70
2019-05-22T18:22:37.803Z,101457.19
2019-05-22T18:25:06.946Z,101458.76
2019-05-22T18:27:35.851Z,101459.95
2019-05-22T18:30:04.893Z,101456.36
2019-05-22T18:32:33.749Z,101458.08
2019-05-22T18:35:02.664Z,101467.69
2019-05-22T18:37:31.567Z,101458.25
2019-05-22T18:40:00.457Z,101462.04
2019-05-22T18:42:29.373Z,101466.31
2019-05-22T18:44:58.269Z,101464.91
2019-05-22T18:47:27.179Z,101469.22
2019-05-22T18:49:56.045Z,101468.71
2019-05-22T18:52:39.977Z,101469.55
2019-05-22T18:54:53.846Z,101467.66
2019-05-22T18:57:22.760Z,101464.52
2019-05-22T18:59:51.692Z,101471.55
2019-05-22T19:02:20.542Z,101471.34
2019-05-22T19:04:49.459Z,101476.00
2019-05-22T19:07:18.363Z,101471.88
2019-05-22T19:09:47.280Z,101475.91
2019-05-22T19:12:16.155Z,101475.02
2019-05-22T19:14:45.048Z,101475.48
2019-05-22T19:17:13.930Z,101478.53
2019-05-22T19:19:42.834Z,101476.94
2019-05-22T19:22:11.715Z,101477.77
2019-05-22T19:24:40.612Z,101481.80
2019-05-22T19:27:09.612Z,101481.98
2019-05-22T19:29:38.397Z,101484.77
2019-05-22T19:32:07.332Z,101488.36
2019-05-22T19:34:36.234Z,101493.94
2019-05-22T19:37:05.120Z,101493.25
2019-05-22T19:39:34.019Z,101491.15
2019-05-22T19:42:05.642Z,101497.73
2019-05-22T19:44:31.846Z,101497.42
2019-05-22T19:47:00.752Z,101499.54
2019-05-22T19:49:29.640Z,101496.72
2019-05-22T19:51:58.552Z,101495.45
2019-05-22T19:54:27.442Z,101495.16
2019-05-22T19:56:56.347Z,101501.07
2019-05-22T19:59:25.263Z,101500.84
2019-05-22T20:01:54.176Z,101503.45
2019-05-22T20:04:23.055Z,101507.34
2019-05-22T20:06:51.962Z,101506.57
2019-05-22T20:09:20.844Z,101499.13
2019-05-22T20:11:49.753Z,101504.64
2019-05-22T20:14:18.957Z,101504.72
2019-05-22T20:16:47.869Z,101504.20
2019-05-22T20:19:16.765Z,101509.62
2019-05-22T20:21:45.675Z,101508.52
2019-05-22T20:24:14.543Z,101504.60
2019-05-22T20:26:43.447Z,101505.13
2019-05-22T20:29:12.783Z,101504.35
2019-05-22T20:31:41.663Z,101499.38
2019-05-22T20:34:10.568Z,101502.02
2019-05-22T20:36:39.765Z,101502.98
2019-05-22T20:39:09.896Z,101507.46
2019-05-22T20:41:38.791Z,101502.09
2019-05-22T20:44:08.647Z,101500.39
2019-05-22T20:46:38.054Z,101500.55
2019-05-22T20:49:06.832Z,101499.56
2019-05-22T20:51:35.773Z,101493.40
2019-05-22T20:54:04.665Z,101497.40
2019-05-22T20:56:33.838Z,101501.11
2019-05-22T20:59:02.785Z,101497.83
2019-05-22T21:01:31.668Z,101494.42
2019-05-22T21:04:00.561Z,101500.17
2019-05-22T21:06:29.464Z,101496.50
2019-05-22T21:08:58.365Z,101502.65
2019-05-22T21:11:27.271Z,101501.08
2019-05-22T21:13:56.148Z,101502.88
2019-05-22T21:16:25.348Z,101498.44
2019-05-22T21:18:54.556Z,101494.98
2019-05-22T21:21:23.441Z,101496.66
2019-05-22T21:23:52.319Z,101500.09
2019-05-22T21:26:21.207Z,101510.34
2019-05-22T21:28:50.127Z,101512.56
2019-05-22T21:31:19.041Z,101512.76
2019-05-22T21:33:47.941Z,101517.87
2019-05-22T21:36:16.975Z,101519.70
2019-05-22T21:38:45.890Z,101522.66
2019-05-22T21:41:14.800Z,101519.16
2019-05-22T21:43:43.680Z,101521.93
2019-05-22T21:46:12.584Z,101519.09
2019-05-22T21:48:41.541Z,101516.13
2019-05-22T21:51:10.423Z,101520.01
2019-05-22T21:53:39.325Z,101522.10
2019-05-22T21:56:08.366Z,101510.38
2019-05-22T21:58:37.441Z,101508.78
2019-05-22T22:01:23.324Z,101509.64
2019-05-22T22:03:54.970Z,101505.38
2019-05-22T22:06:23.855Z,101514.76
2019-05-22T22:08:52.738Z,101512.66
2019-05-22T22:11:22.793Z,101516.38
2019-05-22T22:13:51.710Z,101518.59
2019-05-22T22:16:20.580Z,101513.94
2019-05-22T22:18:49.483Z,101519.55
2019-05-22T22:21:18.406Z,101519.95
2019-05-22T22:23:47.430Z,101517.48
2019-05-22T22:26:25.253Z,101519.58
2019-05-22T22:28:45.243Z,101517.64
2019-05-22T22:31:14.345Z,101517.91
2019-05-22T22:33:43.915Z,101520.12
2019-05-22T22:36:12.817Z,101513.62
2019-05-22T22:38:41.737Z,101511.00
2019-05-22T22:41:10.617Z,101514.23
2019-05-22T22:43:39.976Z,101509.72
2019-05-22T22:46:17.270Z,101509.22
2019-05-22T22:48:47.624Z,101517.14
2019-05-22T22:51:16.529Z,101519.22
2019-05-22T22:53:45.433Z,101521.56
2019-05-22T22:56:14.303Z,101508.62
2019-05-22T22:58:43.216Z,101516.88
2019-05-22T23:01:12.684Z,101518.22
2019-05-22T23:03:41.586Z,101519.84
2019-05-22T23:06:10.480Z,101516.48
2019-05-22T23:08:39.948Z,101515.29
2019-05-22T23:11:09.145Z,101512.81
2019-05-22T23:13:38.045Z,101508.98
2019-05-22T23:16:06.944Z,101513.80
2019-05-22T23:19:30.516Z,101513.67
2019-05-22T23:22:00.501Z,101506.77
2019-05-22T23:24:29.456Z,101507.86
2019-05-22T23:26:58.515Z,101503.29
2019-05-22T23:29:27.585Z,101508.56
2019-05-22T23:31:56.528Z,101500.82
2019-05-22T23:34:25.441Z,101498.00
2019-05-22T23:36:54.350Z,101498.45
2019-05-22T23:39:23.241Z,101502.17
2019-05-22T23:41:55.702Z,101499.12
2019-05-22T23:44:22.157Z,101495.80
2019-05-22T23:46:51.078Z,101497.13
2019-05-22T23:49:19.970Z,101496.98
2019-05-22T23:51:49.157Z,101495.64
2019-05-22T23:54:18.055Z,101498.42
2019-05-22T23:56:46.980Z,101493.58
2019-05-22T23:59:15.913Z,101487.94
